Time;durP1;ratioP1;P1;durP2;ratioP2;P2;SDS_P1;SDS_P2;PMS_P1;PMS_P2;Temp;Humidity;BMP_temperature;BMP_pressure;BME280_temperature;BME280_humidity;BME280_pressure;Samples;Min_cycle;Max_cycle;Signal;HPM_P1;HPM_P2
2020/12/02 00:00:32;;;;;;;35.00;18.10;;;;;;;;;;5092306;28;20438;-77
2020/12/02 00:03:08;;;;;;;33.83;17.85;;;;;;;;;;5092444;28;20020;-74
2020/12/02 00:05:35;;;;;;;33.45;17.38;;;;;;;;;;5092490;28;20024;-80
2020/12/02 00:08:09;;;;;;;34.60;18.10;;;;;;;;;;5092459;28;20024;-80
2020/12/02 00:10:35;;;;;;;;;;;;;;;;;;5092861;28;20024;-75
2020/12/02 00:13:01;;;;;;;39.30;20.05;;;;;;;;;;5092548;28;19915;-84
2020/12/02 00:15:27;;;;;;;34.85;16.77;;;;;;;;;;5092397;28;20411;-75
2020/12/02 00:17:57;;;;;;;37.55;18.45;;;;;;;;;;5092019;28;20093;-85
2020/12/02 00:20:23;;;;;;;37.05;18.15;;;;;;;;;;5088419;28;20028;-75
2020/12/02 00:22:49;;;;;;;39.50;18.42;;;;;;;;;;5070379;28;20035;-85
2020/12/02 00:25:15;;;;;;;34.63;18.48;;;;;;;;;;5072043;28;20088;-75
2020/12/02 00:27:41;;;;;;;33.97;16.42;;;;;;;;;;5072093;28;20021;-75
2020/12/02 00:30:12;;;;;;;34.88;17.90;;;;;;;;;;5072334;28;20423;-76
2020/12/02 00:32:39;;;;;;;36.22;18.80;;;;;;;;;;5073755;28;20043;-75
2020/12/02 00:35:07;;;;;;;35.78;18.17;;;;;;;;;;5076040;28;20024;-75
2020/12/02 00:37:33;;;;;;;37.25;19.20;;;;;;;;;;5075795;28;20025;-75
2020/12/02 00:39:59;;;;;;;37.92;17.52;;;;;;;;;;5075965;28;20037;-85
2020/12/02 00:42:25;;;;;;;38.90;18.73;;;;;;;;;;5075845;28;20428;-75
2020/12/02 00:44:51;;;;;;;38.00;18.65;;;;;;;;;;5075765;28;20028;-79
2020/12/02 00:47:19;;;;;;;37.65;18.67;;;;;;;;;;5076021;28;20353;-86
2020/12/02 00:49:48;;;;;;;37.72;18.13;;;;;;;;;;5075776;28;20028;-77
2020/12/02 00:52:15;;;;;;;35.75;18.52;;;;;;;;;;5075717;28;20024;-76
2020/12/02 00:54:41;;;;;;;37.15;18.38;;;;;;;;;;5075942;28;20024;-79
2020/12/02 00:57:08;;;;;;;38.75;18.33;;;;;;;;;;5075741;28;20021;-84
2020/12/02 00:59:34;;;;;;;36.13;17.08;;;;;;;;;;5075289;28;20087;-75
2020/12/02 01:02:06;;;;;;;38.10;17.23;;;;;;;;;;5075477;28;20040;-75
2020/12/02 01:04:32;;;;;;;38.78;18.33;;;;;;;;;;5075493;28;20021;-77
2020/12/02 01:06:58;;;;;;;35.95;18.65;;;;;;;;;;5075271;28;20024;-76
2020/12/02 01:09:25;;;;;;;36.90;17.40;;;;;;;;;;5075512;28;20021;-86
2020/12/02 01:11:53;;;;;;;39.20;17.48;;;;;;;;;;5074149;28;20477;-75
2020/12/02 01:14:20;;;;;;;37.72;19.17;;;;;;;;;;5075141;28;20385;-76
2020/12/02 01:16:47;;;;;;;35.80;17.85;;;;;;;;;;5074027;28;20021;-79
2020/12/02 01:19:14;;;;;;;39.33;18.35;;;;;;;;;;5075151;28;20469;-76
2020/12/02 01:21:43;;;;;;;40.35;18.20;;;;;;;;;;5075113;28;20937;-76
2020/12/02 01:24:13;;;;;;;34.72;17.75;;;;;;;;;;5075190;28;20477;-81
2020/12/02 01:26:43;;;;;;;37.25;18.48;;;;;;;;;;5074599;28;20474;-76
2020/12/02 01:29:15;;;;;;;40.50;19.05;;;;;;;;;;5075069;28;20077;-84
2020/12/02 01:31:44;;;;;;;35.90;17.95;;;;;;;;;;5075021;28;20031;-77
2020/12/02 01:34:10;;;;;;;40.47;19.83;;;;;;;;;;5075332;28;20043;-76
2020/12/02 01:36:55;;;;;;;37.67;18.08;;;;;;;;;;5074770;28;20357;-76
2020/12/02 01:39:21;;;;;;;39.97;19.17;;;;;;;;;;5092803;28;20039;-75
2020/12/02 01:41:48;;;;;;;36.97;19.23;;;;;;;;;;5095233;28;20494;-76
2020/12/02 01:44:14;;;;;;;36.85;17.63;;;;;;;;;;5094072;28;20024;-75
2020/12/02 01:46:47;;;;;;;35.70;17.70;;;;;;;;;;5094727;28;20020;-83
2020/12/02 01:49:13;;;;;;;36.22;18.30;;;;;;;;;;5094833;28;20062;-80
2020/12/02 01:51:51;;;;;;;38.38;18.45;;;;;;;;;;5094904;28;20020;-81
2020/12/02 01:54:35;;;;;;;44.00;19.27;;;;;;;;;;5094971;28;20032;-76
2020/12/02 01:57:04;;;;;;;36.90;18.23;;;;;;;;;;5094858;28;20360;-82
2020/12/02 01:59:37;;;;;;;37.15;18.08;;;;;;;;;;5094632;28;20200;-76
2020/12/02 02:02:06;;;;;;;35.60;17.50;;;;;;;;;;5094659;28;20036;-75
2020/12/02 02:04:45;;;;;;;38.05;18.85;;;;;;;;;;5094416;28;20552;-75
2020/12/02 02:07:17;;;;;;;37.17;17.48;;;;;;;;;;5094707;28;20115;-76
2020/12/02 02:09:44;;;;;;;36.95;17.35;;;;;;;;;;5094437;28;20493;-76
2020/12/02 02:12:13;;;;;;;32.28;15.93;;;;;;;;;;5094552;28;20062;-76
2020/12/02 02:14:43;;;;;;;34.10;16.50;;;;;;;;;;5094453;28;20027;-76
2020/12/02 02:17:09;;;;;;;35.05;17.23;;;;;;;;;;5094430;28;20020;-75
2020/12/02 02:19:35;;;;;;;38.38;19.60;;;;;;;;;;5094364;28;20111;-75
2020/12/02 02:22:01;;;;;;;36.40;17.58;;;;;;;;;;5094471;28;20039;-77
2020/12/02 02:24:27;;;;;;;38.75;19.85;;;;;;;;;;5094300;28;20020;-77
2020/12/02 02:26:54;;;;;;;38.58;18.58;;;;;;;;;;5094040;28;20065;-81
2020/12/02 02:29:22;;;;;;;39.67;19.55;;;;;;;;;;5094104;28;20024;-75
2020/12/02 02:31:52;;;;;;;39.33;18.85;;;;;;;;;;5094271;28;20024;-76
2020/12/02 02:34:19;;;;;;;35.15;18.05;;;;;;;;;;5093144;28;20035;-76
2020/12/02 02:36:45;;;;;;;37.90;18.17;;;;;;;;;;5093925;28;20065;-79
2020/12/02 02:39:13;;;;;;;41.15;19.17;;;;;;;;;;5093965;28;20028;-75
2020/12/02 02:41:39;;;;;;;36.67;18.35;;;;;;;;;;5076323;28;20032;-84
2020/12/02 02:44:06;;;;;;;36.97;18.38;;;;;;;;;;5073462;28;20047;-76
2020/12/02 02:46:32;;;;;;;39.95;19.05;;;;;;;;;;5073525;28;20017;-75
2020/12/02 02:48:58;;;;;;;35.70;18.55;;;;;;;;;;5073630;28;20350;-75
2020/12/02 02:51:24;;;;;;;36.45;17.85;;;;;;;;;;5073467;28;20017;-86
2020/12/02 02:53:50;;;;;;;36.00;17.67;;;;;;;;;;5073703;28;20025;-84
2020/12/02 02:56:16;;;;;;;37.28;17.75;;;;;;;;;;5072268;28;20021;-75
2020/12/02 02:58:42;;;;;;;41.05;19.75;;;;;;;;;;5073054;28;20052;-82
2020/12/02 03:01:09;;;;;;;35.97;18.10;;;;;;;;;;5073296;28;20032;-76
2020/12/02 03:03:35;;;;;;;35.60;17.95;;;;;;;;;;5073153;28;20027;-78
2020/12/02 03:06:02;;;;;;;38.20;19.38;;;;;;;;;;5073132;28;20025;-81
2020/12/02 03:08:28;;;;;;;38.83;19.65;;;;;;;;;;5073306;28;20021;-79
2020/12/02 03:10:56;;;;;;;41.58;19.10;;;;;;;;;;5073104;28;20025;-75
2020/12/02 03:13:28;;;;;;;36.08;18.33;;;;;;;;;;5073130;28;20032;-75
2020/12/02 03:15:54;;;;;;;42.65;20.08;;;;;;;;;;5073232;28;20104;-87
2020/12/02 03:18:20;;;;;;;42.40;20.95;;;;;;;;;;5072941;28;20102;-76
2020/12/02 03:20:53;;;;;;;44.92;21.33;;;;;;;;;;5072627;28;20029;-77
2020/12/02 03:23:19;;;;;;;39.78;19.02;;;;;;;;;;5075764;28;20435;-76
2020/12/02 03:25:46;;;;;;;40.40;19.10;;;;;;;;;;5093086;28;20515;-75
2020/12/02 03:28:12;;;;;;;43.70;20.88;;;;;;;;;;5092994;28;20012;-75
2020/12/02 03:30:39;;;;;;;39.47;19.52;;;;;;;;;;5093060;28;20027;-82
2020/12/02 03:33:05;;;;;;;44.38;19.75;;;;;;;;;;5092986;28;20099;-75
2020/12/02 03:35:31;;;;;;;40.65;19.15;;;;;;;;;;5093054;28;20020;-81
2020/12/02 03:37:57;;;;;;;39.65;19.05;;;;;;;;;;5091640;28;20044;-87
2020/12/02 03:40:23;;;;;;;39.47;18.20;;;;;;;;;;5089762;28;20034;-74
2020/12/02 03:42:51;;;;;;;41.08;18.98;;;;;;;;;;5072576;28;20484;-76
2020/12/02 03:45:17;;;;;;;39.63;19.10;;;;;;;;;;5072490;28;20078;-74
2020/12/02 03:47:43;;;;;;;38.92;18.70;;;;;;;;;;5072503;28;20032;-84
2020/12/02 03:50:12;;;;;;;38.22;17.90;;;;;;;;;;5072544;28;20032;-75
2020/12/02 03:52:38;;;;;;;39.58;18.88;;;;;;;;;;5072415;28;20016;-76
2020/12/02 03:55:07;;;;;;;40.70;19.33;;;;;;;;;;5072499;28;20020;-74
2020/12/02 03:57:33;;;;;;;42.45;19.38;;;;;;;;;;5071198;28;20500;-83
2020/12/02 04:00:00;;;;;;;39.10;18.85;;;;;;;;;;5071966;28;20407;-80
2020/12/02 04:02:26;;;;;;;38.67;17.95;;;;;;;;;;5072139;28;20385;-75
2020/12/02 04:04:54;;;;;;;40.90;18.88;;;;;;;;;;5071134;28;20031;-74
2020/12/02 04:07:20;;;;;;;35.17;17.20;;;;;;;;;;5071904;28;20384;-75
2020/12/02 04:09:46;;;;;;;39.00;17.50;;;;;;;;;;5084611;28;20464;-86
2020/12/02 04:12:12;;;;;;;40.28;19.13;;;;;;;;;;5092535;28;20531;-75
2020/12/02 04:14:38;;;;;;;35.28;17.05;;;;;;;;;;5092165;28;20012;-76
2020/12/02 04:17:04;;;;;;;36.03;18.27;;;;;;;;;;5091685;28;20104;-75
2020/12/02 04:19:30;;;;;;;34.33;17.23;;;;;;;;;;5092220;28;20023;-73
2020/12/02 04:21:57;;;;;;;36.70;18.08;;;;;;;;;;5092303;28;20114;-74
2020/12/02 04:24:23;;;;;;;33.65;16.17;;;;;;;;;;5092218;28;20024;-77
2020/12/02 04:26:50;;;;;;;35.75;17.27;;;;;;;;;;5092306;28;20039;-74
2020/12/02 04:29:16;;;;;;;33.65;17.75;;;;;;;;;;5092139;28;20016;-77
2020/12/02 04:31:42;;;;;;;37.55;17.55;;;;;;;;;;5091865;28;20020;-75
2020/12/02 04:34:08;;;;;;;36.60;16.13;;;;;;;;;;5091968;28;20077;-74
2020/12/02 04:36:34;;;;;;;34.22;17.15;;;;;;;;;;5092031;28;20024;-75
2020/12/02 04:39:00;;;;;;;40.15;17.67;;;;;;;;;;5092029;28;20047;-76
2020/12/02 04:41:29;;;;;;;35.22;17.92;;;;;;;;;;5092005;28;20384;-77
2020/12/02 04:43:55;;;;;;;32.90;17.80;;;;;;;;;;5092172;28;20036;-75
2020/12/02 04:46:25;;;;;;;37.75;18.45;;;;;;;;;;5092249;28;20383;-75
2020/12/02 04:48:53;;;;;;;37.22;17.10;;;;;;;;;;5091940;28;20020;-74
2020/12/02 04:51:26;;;;;;;35.40;17.63;;;;;;;;;;5091945;28;20024;-77
2020/12/02 04:53:53;;;;;;;33.63;18.15;;;;;;;;;;5075561;28;20021;-75
2020/12/02 04:56:25;;;;;;;35.78;16.88;;;;;;;;;;5071123;28;20028;-74
2020/12/02 04:58:51;;;;;;;34.10;17.48;;;;;;;;;;5091728;28;20047;-74
2020/12/02 05:01:17;;;;;;;35.47;16.63;;;;;;;;;;5091813;28;20380;-74
2020/12/02 05:03:59;;;;;;;35.55;18.25;;;;;;;;;;5091382;28;20111;-75
2020/12/02 05:06:45;;;;;;;35.30;17.88;;;;;;;;;;5091823;28;20024;-78
2020/12/02 05:09:11;;;;;;;37.65;16.50;;;;;;;;;;5091616;28;20020;-74
2020/12/02 05:11:38;;;;;;;32.58;16.33;;;;;;;;;;5091718;28;20020;-74
2020/12/02 05:14:05;;;;;;;39.75;19.15;;;;;;;;;;5091766;28;20054;-74
2020/12/02 05:16:32;;;;;;;37.78;17.88;;;;;;;;;;5091219;28;20145;-76
2020/12/02 05:18:58;;;;;;;37.05;17.42;;;;;;;;;;5093365;28;20032;-76
2020/12/02 05:21:29;;;;;;;35.83;17.05;;;;;;;;;;5083222;28;20421;-76
2020/12/02 05:24:06;;;;;;;37.33;18.05;;;;;;;;;;5075200;28;20021;-75
2020/12/02 05:26:34;;;;;;;36.75;17.95;;;;;;;;;;5074769;28;20029;-76
2020/12/02 05:29:03;;;;;;;38.20;18.05;;;;;;;;;;5075152;28;20016;-77
2020/12/02 05:31:32;;;;;;;35.13;16.92;;;;;;;;;;5074991;28;20044;-76
2020/12/02 05:34:05;;;;;;;35.67;17.85;;;;;;;;;;5074955;28;20495;-75
2020/12/02 05:36:38;;;;;;;34.67;16.73;;;;;;;;;;5074761;28;20032;-81
2020/12/02 05:39:13;;;;;;;31.23;16.10;;;;;;;;;;5073776;28;20379;-86
2020/12/02 05:41:39;;;;;;;31.08;16.60;;;;;;;;;;5074868;28;20028;-76
2020/12/02 05:44:14;;;;;;;34.15;15.68;;;;;;;;;;5075001;28;20025;-75
2020/12/02 05:46:44;;;;;;;34.30;16.92;;;;;;;;;;5074616;28;20047;-76
2020/12/02 05:49:12;;;;;;;37.65;17.98;;;;;;;;;;5087079;28;20027;-75
2020/12/02 05:51:39;;;;;;;36.78;17.55;;;;;;;;;;5093751;28;20028;-76
2020/12/02 05:54:07;;;;;;;36.40;17.85;;;;;;;;;;5093689;28;20360;-75
2020/12/02 05:56:33;;;;;;;38.72;19.10;;;;;;;;;;5094923;28;20016;-76
2020/12/02 05:59:01;;;;;;;43.20;19.15;;;;;;;;;;5094789;28;20068;-76
2020/12/02 06:01:28;;;;;;;33.00;17.40;;;;;;;;;;5094688;28;20452;-81
2020/12/02 06:03:55;;;;;;;35.67;17.35;;;;;;;;;;5094597;28;20031;-81
2020/12/02 06:06:22;;;;;;;36.92;17.73;;;;;;;;;;5094817;28;20021;-76
2020/12/02 06:08:50;;;;;;;34.30;16.50;;;;;;;;;;5094765;28;20061;-76
2020/12/02 06:11:16;;;;;;;35.67;16.85;;;;;;;;;;5094409;28;20387;-82
2020/12/02 06:13:44;;;;;;;36.72;18.13;;;;;;;;;;5094534;28;20021;-76
2020/12/02 06:16:12;;;;;;;33.70;18.08;;;;;;;;;;5093210;28;20024;-76
2020/12/02 06:18:38;;;;;;;37.33;17.33;;;;;;;;;;5094273;28;20016;-78
2020/12/02 06:21:07;;;;;;;37.28;17.95;;;;;;;;;;5094295;28;20028;-80
2020/12/02 06:23:46;;;;;;;34.88;16.77;;;;;;;;;;5094311;28;20024;-84
2020/12/02 06:26:13;;;;;;;40.33;19.95;;;;;;;;;;5094335;28;20051;-75
2020/12/02 06:28:39;;;;;;;41.63;20.05;;;;;;;;;;5093841;28;20031;-81
2020/12/02 06:31:06;;;;;;;37.65;18.77;;;;;;;;;;5074173;28;20037;-75
2020/12/02 06:33:33;;;;;;;44.00;21.13;;;;;;;;;;5070259;28;20150;-75
2020/12/02 06:36:18;;;;;;;41.20;19.17;;;;;;;;;;5071551;28;20481;-79
2020/12/02 06:38:45;;;;;;;44.80;19.75;;;;;;;;;;5071340;28;20028;-76
2020/12/02 06:41:21;;;;;;;42.28;19.30;;;;;;;;;;5071099;28;20392;-79
2020/12/02 06:44:01;;;;;;;47.50;21.15;;;;;;;;;;5071456;28;20388;-74
2020/12/02 06:46:42;;;;;;;43.88;20.58;;;;;;;;;;5071269;28;20021;-79
2020/12/02 06:49:09;;;;;;;45.13;21.15;;;;;;;;;;5070981;28;20044;-74
2020/12/02 06:51:35;;;;;;;43.25;21.05;;;;;;;;;;5071133;28;20056;-75
2020/12/02 06:54:01;;;;;;;39.30;18.40;;;;;;;;;;5070720;28;20063;-78
2020/12/02 06:56:28;;;;;;;42.72;20.85;;;;;;;;;;5070996;28;20033;-75
2020/12/02 06:59:07;;;;;;;46.75;21.35;;;;;;;;;;5070805;28;20102;-75
2020/12/02 07:01:33;;;;;;;41.92;20.38;;;;;;;;;;5070890;28;20036;-79
2020/12/02 07:04:00;;;;;;;41.88;20.13;;;;;;;;;;5071068;28;20033;-79
2020/12/02 07:06:26;;;;;;;37.90;19.00;;;;;;;;;;5070702;28;20380;-75
2020/12/02 07:09:04;;;;;;;39.50;19.35;;;;;;;;;;5070755;28;20029;-74
2020/12/02 07:11:30;;;;;;;37.33;17.52;;;;;;;;;;5070699;28;20032;-75
2020/12/02 07:14:09;;;;;;;36.67;17.75;;;;;;;;;;5070600;28;20021;-74
2020/12/02 07:16:35;;;;;;;37.65;19.02;;;;;;;;;;5070431;28;20017;-74
2020/12/02 07:19:03;;;;;;;36.00;17.50;;;;;;;;;;5070271;28;20024;-73
2020/12/02 07:21:44;;;;;;;35.95;17.98;;;;;;;;;;5070476;28;20085;-74
2020/12/02 07:24:22;;;;;;;37.17;16.92;;;;;;;;;;5070377;28;20028;-73
2020/12/02 07:26:50;;;;;;;36.78;17.02;;;;;;;;;;5069258;28;20024;-75
2020/12/02 07:29:17;;;;;;;36.10;16.67;;;;;;;;;;5068946;28;20567;-78
2020/12/02 07:31:44;;;;;;;39.13;17.63;;;;;;;;;;5070312;28;20021;-74
2020/12/02 07:34:17;;;;;;;38.47;17.48;;;;;;;;;;5070507;28;20036;-75
2020/12/02 07:36:43;;;;;;;36.50;17.63;;;;;;;;;;5070089;28;20025;-74
2020/12/02 07:39:14;;;;;;;37.17;18.20;;;;;;;;;;5068759;28;20033;-74
2020/12/02 07:41:49;;;;;;;36.33;17.63;;;;;;;;;;5067707;28;20124;-77
2020/12/02 07:44:16;;;;;;;31.25;16.85;;;;;;;;;;5070124;28;20027;-78
2020/12/02 07:46:42;;;;;;;32.33;16.02;;;;;;;;;;5070261;28;20058;-74
2020/12/02 07:49:09;;;;;;;31.15;15.93;;;;;;;;;;5067803;28;20028;-81
2020/12/02 07:51:36;;;;;;;34.58;17.00;;;;;;;;;;5070389;28;20060;-76
2020/12/02 07:54:10;;;;;;;33.03;16.85;;;;;;;;;;5069896;28;20488;-74
2020/12/02 07:56:38;;;;;;;38.05;17.58;;;;;;;;;;5070127;28;20103;-75
2020/12/02 07:59:06;;;;;;;35.80;17.77;;;;;;;;;;5070092;28;20401;-75
2020/12/02 08:01:32;;;;;;;37.28;18.00;;;;;;;;;;5070042;28;20036;-75
2020/12/02 08:04:19;;;;;;;37.33;17.95;;;;;;;;;;5070149;28;20552;-74
2020/12/02 08:06:47;;;;;;;35.08;17.23;;;;;;;;;;5068394;28;20028;-75
2020/12/02 08:09:13;;;;;;;35.45;17.60;;;;;;;;;;5069957;28;20468;-73
2020/12/02 08:11:51;;;;;;;34.20;17.20;;;;;;;;;;5069923;28;20036;-73
2020/12/02 08:14:25;;;;;;;37.80;16.73;;;;;;;;;;5065321;28;20023;-78
2020/12/02 08:16:54;;;;;;;38.33;18.48;;;;;;;;;;5069438;28;20039;-80
2020/12/02 08:19:30;;;;;;;36.17;17.52;;;;;;;;;;5069878;28;20178;-73
2020/12/02 08:21:56;;;;;;;39.92;18.40;;;;;;;;;;5069750;28;20036;-73
2020/12/02 08:24:42;;;;;;;35.92;17.50;;;;;;;;;;5069677;28;20029;-74
2020/12/02 08:27:09;;;;;;;36.97;19.33;;;;;;;;;;5069721;28;20032;-73
2020/12/02 08:29:35;;;;;;;37.60;19.02;;;;;;;;;;5069310;28;20116;-79
2020/12/02 08:32:07;;;;;;;38.78;19.25;;;;;;;;;;5069649;28;20032;-74
2020/12/02 08:34:34;;;;;;;39.67;18.65;;;;;;;;;;5069591;28;20028;-82
2020/12/02 08:37:12;;;;;;;37.35;18.38;;;;;;;;;;5069628;28;20028;-75
2020/12/02 08:39:43;;;;;;;35.28;19.67;;;;;;;;;;5069660;28;20035;-73
2020/12/02 08:42:24;;;;;;;40.10;19.95;;;;;;;;;;5068046;28;20075;-73
2020/12/02 08:45:12;;;;;;;36.85;18.52;;;;;;;;;;5069830;28;20138;-72
2020/12/02 08:47:38;;;;;;;42.75;20.80;;;;;;;;;;5069621;28;20044;-75
2020/12/02 08:50:06;;;;;;;41.15;21.05;;;;;;;;;;5069448;28;20488;-73
2020/12/02 08:52:32;;;;;;;41.10;21.42;;;;;;;;;;5069406;28;20426;-73
2020/12/02 08:54:58;;;;;;;35.50;18.30;;;;;;;;;;5072899;28;20499;-73
2020/12/02 08:57:24;;;;;;;40.13;18.58;;;;;;;;;;5072025;28;20028;-80
2020/12/02 08:59:50;;;;;;;36.97;18.52;;;;;;;;;;5072033;28;20048;-73
2020/12/02 09:02:17;;;;;;;37.75;20.13;;;;;;;;;;5073294;28;20071;-73
2020/12/02 09:04:46;;;;;;;36.47;18.27;;;;;;;;;;5073159;28;20024;-74
2020/12/02 09:07:12;;;;;;;36.83;20.30;;;;;;;;;;5073052;28;20033;-73
2020/12/02 09:09:38;;;;;;;37.33;18.92;;;;;;;;;;5073277;28;20491;-73
2020/12/02 09:12:04;;;;;;;34.78;17.83;;;;;;;;;;5072986;28;20097;-73
2020/12/02 09:14:30;;;;;;;37.47;18.58;;;;;;;;;;5073105;28;20693;-71
2020/12/02 09:16:56;;;;;;;38.00;19.35;;;;;;;;;;5072924;28;20396;-71
2020/12/02 09:19:22;;;;;;;38.88;18.83;;;;;;;;;;5072877;28;20044;-75
2020/12/02 09:21:48;;;;;;;37.15;18.40;;;;;;;;;;5072904;28;20655;-74
2020/12/02 09:24:15;;;;;;;35.10;18.38;;;;;;;;;;5072997;28;20365;-72
2020/12/02 09:26:41;;;;;;;35.05;17.52;;;;;;;;;;5072885;28;20024;-72
2020/12/02 09:29:09;;;;;;;32.72;17.98;;;;;;;;;;5072895;28;20078;-73
2020/12/02 09:31:35;;;;;;;36.25;17.90;;;;;;;;;;5072362;28;20027;-74
2020/12/02 09:34:03;;;;;;;41.15;18.98;;;;;;;;;;5072733;28;20163;-77
2020/12/02 09:36:29;;;;;;;33.78;16.98;;;;;;;;;;5072512;28;20393;-74
2020/12/02 09:38:56;;;;;;;32.63;15.43;;;;;;;;;;5072413;28;20036;-73
2020/12/02 09:41:31;;;;;;;39.50;17.73;;;;;;;;;;5072246;28;20036;-72
2020/12/02 09:44:00;;;;;;;28.95;14.10;;;;;;;;;;5072366;28;20058;-76
2020/12/02 09:46:27;;;;;;;31.48;15.15;;;;;;;;;;5072375;28;20023;-77
2020/12/02 09:48:53;;;;;;;32.63;15.57;;;;;;;;;;5071134;28;20020;-74
2020/12/02 09:51:24;;;;;;;29.08;13.68;;;;;;;;;;5072683;28;20036;-80
2020/12/02 09:53:51;;;;;;;28.65;13.25;;;;;;;;;;5072535;28;20021;-79
2020/12/02 09:56:18;;;;;;;28.23;12.55;;;;;;;;;;5072645;28;20025;-79
2020/12/02 09:58:44;;;;;;;35.17;17.70;;;;;;;;;;5072085;28;20504;-72
2020/12/02 10:01:18;;;;;;;37.28;16.38;;;;;;;;;;5072162;28;20119;-72
2020/12/02 10:03:44;;;;;;;;;;;;;;;;;;5072665;28;20173;-71
2020/12/02 10:06:19;;;;;;;27.85;12.98;;;;;;;;;;5070898;28;19976;-73
2020/12/02 10:08:51;;;;;;;29.98;13.45;;;;;;;;;;5072096;28;20016;-71
2020/12/02 10:11:20;;;;;;;29.40;13.95;;;;;;;;;;5071897;28;20460;-72
2020/12/02 10:13:46;;;;;;;32.03;14.05;;;;;;;;;;5071878;28;20021;-75
2020/12/02 10:16:22;;;;;;;35.30;15.63;;;;;;;;;;5072078;28;20027;-71
2020/12/02 10:19:00;;;;;;;35.63;16.40;;;;;;;;;;5070639;28;20028;-72
2020/12/02 10:21:36;;;;;;;33.22;15.30;;;;;;;;;;5071795;28;20033;-71
2020/12/02 10:24:12;;;;;;;30.85;13.73;;;;;;;;;;5071834;28;20103;-72
2020/12/02 10:26:38;;;;;;;32.90;14.80;;;;;;;;;;5071799;28;20035;-72
2020/12/02 10:29:11;;;;;;;30.08;14.82;;;;;;;;;;5071777;28;20028;-72
2020/12/02 10:31:56;;;;;;;31.52;13.27;;;;;;;;;;5067949;28;20021;-73
2020/12/02 10:34:31;;;;;;;28.23;13.27;;;;;;;;;;5071187;28;20480;-71
2020/12/02 10:37:02;;;;;;;29.70;12.05;;;;;;;;;;5071543;28;20021;-72
2020/12/02 10:39:31;;;;;;;30.67;13.75;;;;;;;;;;5071353;28;20059;-73
2020/12/02 10:42:04;;;;;;;31.08;14.10;;;;;;;;;;5071156;28;20064;-72
2020/12/02 10:44:46;;;;;;;26.50;13.60;;;;;;;;;;5071591;28;20024;-71
2020/12/02 10:47:35;;;;;;;27.77;12.90;;;;;;;;;;5071312;28;20043;-77
2020/12/02 10:50:01;;;;;;;30.35;14.13;;;;;;;;;;5070936;28;20024;-72
2020/12/02 10:52:27;;;;;;;31.23;14.10;;;;;;;;;;5071084;28;20079;-73
2020/12/02 10:54:53;;;;;;;28.83;13.65;;;;;;;;;;5070782;28;20028;-72
2020/12/02 10:57:21;;;;;;;26.25;13.50;;;;;;;;;;5071173;28;20028;-72
2020/12/02 10:59:50;;;;;;;26.13;13.05;;;;;;;;;;5070619;28;20048;-76
2020/12/02 11:02:20;;;;;;;26.90;13.05;;;;;;;;;;5070966;28;20036;-72
2020/12/02 11:04:47;;;;;;;24.85;12.60;;;;;;;;;;5071181;28;20025;-72
2020/12/02 11:07:19;;;;;;;24.38;12.23;;;;;;;;;;5070754;28;20036;-72
2020/12/02 11:10:09;;;;;;;24.52;12.25;;;;;;;;;;5070877;28;20024;-72
2020/12/02 11:12:43;;;;;;;24.77;12.60;;;;;;;;;;5070771;28;20103;-75
2020/12/02 11:15:09;;;;;;;28.65;14.93;;;;;;;;;;5070594;28;20032;-72
2020/12/02 11:17:41;;;;;;;31.00;15.95;;;;;;;;;;5070163;28;20036;-72
2020/12/02 11:20:12;;;;;;;31.25;15.20;;;;;;;;;;5070485;28;20103;-73
2020/12/02 11:23:02;;;;;;;28.63;13.98;;;;;;;;;;5070627;28;20514;-72
2020/12/02 11:25:39;;;;;;;27.83;14.15;;;;;;;;;;5070455;28;20054;-72
2020/12/02 11:28:05;;;;;;;27.02;12.80;;;;;;;;;;5069456;28;20024;-71
2020/12/02 11:30:33;;;;;;;26.80;12.88;;;;;;;;;;5070203;28;20032;-72
2020/12/02 11:33:02;;;;;;;29.75;14.65;;;;;;;;;;5070313;28;20384;-73
2020/12/02 11:35:42;;;;;;;28.98;13.98;;;;;;;;;;5070422;28;20439;-71
2020/12/02 11:38:09;;;;;;;28.55;13.35;;;;;;;;;;5070562;28;20699;-74
2020/12/02 11:40:41;;;;;;;30.48;13.63;;;;;;;;;;5070321;28;20115;-72
2020/12/02 11:43:08;;;;;;;30.17;14.35;;;;;;;;;;5069981;28;20032;-73
2020/12/02 11:45:45;;;;;;;31.13;13.75;;;;;;;;;;5069682;28;20693;-72
2020/12/02 11:48:30;;;;;;;30.63;14.15;;;;;;;;;;5072472;28;20028;-74
2020/12/02 11:50:55;;;;;;;;;;;;;;;;;;5072954;28;20064;-72
2020/12/02 11:53:40;;;;;;;33.35;14.45;;;;;;;;;;5072424;28;19940;-71
2020/12/02 11:56:07;;;;;;;31.67;15.23;;;;;;;;;;5071761;28;20510;-75
2020/12/02 11:58:33;;;;;;;32.53;15.02;;;;;;;;;;5072450;28;20075;-74
2020/12/02 12:01:04;;;;;;;30.23;14.15;;;;;;;;;;5072585;28;20388;-78
2020/12/02 12:03:52;;;;;;;27.98;12.77;;;;;;;;;;5072362;28;20035;-78
2020/12/02 12:06:24;;;;;;;28.58;11.82;;;;;;;;;;5072615;28;20028;-72
2020/12/02 12:08:56;;;;;;;43.45;17.75;;;;;;;;;;5071293;28;20017;-72
2020/12/02 12:11:36;;;;;;;40.90;17.67;;;;;;;;;;5072026;28;20025;-72
2020/12/02 12:14:06;;;;;;;196.75;60.47;;;;;;;;;;5072414;28;20025;-72
2020/12/02 12:16:50;;;;;;;124.45;44.90;;;;;;;;;;5072309;28;20488;-73
2020/12/02 12:19:27;;;;;;;39.67;18.60;;;;;;;;;;5072331;28;20494;-72
2020/12/02 12:21:59;;;;;;;35.10;16.25;;;;;;;;;;5072256;28;20037;-73
2020/12/02 12:24:25;;;;;;;32.05;14.88;;;;;;;;;;5072105;28;20024;-72
2020/12/02 12:26:53;;;;;;;42.30;21.52;;;;;;;;;;5072345;28;20036;-78
2020/12/02 12:29:19;;;;;;;33.88;16.08;;;;;;;;;;5075110;28;20020;-72
2020/12/02 12:31:50;;;;;;;34.88;15.80;;;;;;;;;;5076301;28;20379;-73
2020/12/02 12:34:16;;;;;;;37.30;17.08;;;;;;;;;;5076320;28;20021;-72
2020/12/02 12:36:43;;;;;;;35.33;16.48;;;;;;;;;;5076153;28;20362;-72
2020/12/02 12:39:15;;;;;;;35.13;16.02;;;;;;;;;;5076358;28;20123;-72
2020/12/02 12:41:46;;;;;;;32.03;15.13;;;;;;;;;;5076079;28;20078;-75
2020/12/02 12:44:24;;;;;;;32.80;16.23;;;;;;;;;;5074870;28;20032;-73
2020/12/02 12:47:08;;;;;;;30.02;14.25;;;;;;;;;;5075011;28;20024;-77
2020/12/02 12:49:34;;;;;;;30.92;14.27;;;;;;;;;;5076092;28;20024;-73
2020/12/02 12:52:01;;;;;;;30.10;14.82;;;;;;;;;;5062463;28;20033;-72
2020/12/02 12:54:27;;;;;;;32.40;14.90;;;;;;;;;;5053303;28;20025;-73
2020/12/02 12:56:56;;;;;;;32.35;15.50;;;;;;;;;;5053191;28;20029;-71
2020/12/02 12:59:23;;;;;;;33.53;15.20;;;;;;;;;;5052982;28;20111;-72
2020/12/02 13:01:51;;;;;;;33.75;16.20;;;;;;;;;;5051720;28;20037;-72
2020/12/02 13:04:19;;;;;;;35.72;16.15;;;;;;;;;;5050242;28;20025;-72
2020/12/02 13:07:04;;;;;;;36.30;17.67;;;;;;;;;;5051837;28;20028;-73
2020/12/02 13:09:50;;;;;;;33.90;14.93;;;;;;;;;;5051900;28;20109;-73
2020/12/02 13:12:16;;;;;;;49.50;22.77;;;;;;;;;;5052061;28;20100;-72
2020/12/02 13:14:51;;;;;;;64.53;25.65;;;;;;;;;;5051637;28;20028;-72
2020/12/02 13:17:30;;;;;;;38.85;17.88;;;;;;;;;;5050492;28;20029;-73
2020/12/02 13:20:10;;;;;;;31.60;14.57;;;;;;;;;;5052830;28;20538;-72
2020/12/02 13:22:36;;;;;;;31.77;15.32;;;;;;;;;;5052853;28;20059;-73
2020/12/02 13:25:05;;;;;;;31.98;15.90;;;;;;;;;;5052842;28;20397;-73
2020/12/02 13:27:31;;;;;;;34.00;16.52;;;;;;;;;;5052460;28;20029;-72
2020/12/02 13:30:23;;;;;;;36.20;17.73;;;;;;;;;;5052866;28;20025;-73
2020/12/02 13:32:53;;;;;;;32.65;16.08;;;;;;;;;;5055336;28;20055;-73
2020/12/02 13:35:19;;;;;;;33.67;16.70;;;;;;;;;;5072237;28;20035;-72
2020/12/02 13:37:45;;;;;;;30.63;15.20;;;;;;;;;;5072235;28;20477;-72
2020/12/02 13:40:11;;;;;;;35.35;16.92;;;;;;;;;;5070687;28;20027;-78
2020/12/02 13:42:37;;;;;;;33.65;15.70;;;;;;;;;;5072488;28;20036;-72
2020/12/02 13:45:03;;;;;;;33.00;16.75;;;;;;;;;;5071963;28;20078;-72
2020/12/02 13:47:30;;;;;;;32.72;15.98;;;;;;;;;;5072402;28;20103;-72
2020/12/02 13:49:56;;;;;;;30.83;15.38;;;;;;;;;;5072437;28;20538;-73
2020/12/02 13:52:41;;;;;;;32.97;17.70;;;;;;;;;;5072129;28;20024;-73
2020/12/02 13:55:22;;;;;;;36.30;17.75;;;;;;;;;;5072391;28;20033;-73
2020/12/02 13:57:48;;;;;;;30.77;16.00;;;;;;;;;;5072556;28;20041;-73
2020/12/02 14:00:26;;;;;;;32.53;15.43;;;;;;;;;;5071980;28;20048;-77
2020/12/02 14:02:55;;;;;;;32.15;16.95;;;;;;;;;;5071477;28;20051;-72
2020/12/02 14:05:39;;;;;;;66.90;27.48;;;;;;;;;;5071818;28;20027;-73
2020/12/02 14:08:05;;;;;;;;;;;;;;;;;;5072237;28;20562;-72
2020/12/02 14:10:31;;;;;;;43.22;20.13;;;;;;;;;;5071907;28;19952;-72
2020/12/02 14:12:58;;;;;;;35.80;19.08;;;;;;;;;;5071534;28;20016;-73
2020/12/02 14:15:27;;;;;;;34.42;16.90;;;;;;;;;;5071622;28;20092;-72
2020/12/02 14:17:53;;;;;;;32.72;16.98;;;;;;;;;;5071946;28;20020;-73
2020/12/02 14:20:20;;;;;;;29.00;15.68;;;;;;;;;;5071892;28;20040;-72
2020/12/02 14:22:46;;;;;;;34.55;17.20;;;;;;;;;;5071714;28;20521;-75
2020/12/02 14:25:14;;;;;;;38.63;17.02;;;;;;;;;;5071371;28;20036;-78
2020/12/02 14:27:47;;;;;;;35.67;17.27;;;;;;;;;;5071034;28;20055;-72
2020/12/02 14:30:24;;;;;;;33.13;16.63;;;;;;;;;;5071314;28;20020;-72
2020/12/02 14:32:51;;;;;;;29.80;16.02;;;;;;;;;;5070269;28;20028;-71